createdAt,value
2018-05-25T00:01:33.265Z,15.27
2018-05-25T00:04:00.824Z,15.24
2018-05-25T00:06:28.374Z,15.24
2018-05-25T00:08:55.969Z,15.26
2018-05-25T00:11:23.519Z,15.30
2018-05-25T00:13:51.068Z,15.25
2018-05-25T00:16:18.660Z,15.24
2018-05-25T00:18:46.211Z,15.25
2018-05-25T00:21:13.748Z,15.25
2018-05-25T00:23:41.643Z,15.28
2018-05-25T00:26:09.201Z,15.25
2018-05-25T00:28:36.754Z,15.23
2018-05-25T00:31:04.703Z,15.23
2018-05-25T00:33:32.239Z,15.31
2018-05-25T00:35:59.800Z,15.33
2018-05-25T00:38:27.397Z,15.33
2018-05-25T00:40:54.946Z,15.31
2018-05-25T00:43:22.491Z,15.31
2018-05-25T00:45:50.076Z,15.34
2018-05-25T00:48:17.620Z,15.38
2018-05-25T00:50:45.164Z,15.45
2018-05-25T00:53:12.735Z,15.48
2018-05-25T00:55:41.212Z,15.51
2018-05-25T00:58:08.755Z,15.47
2018-05-25T01:00:36.419Z,15.43
2018-05-25T01:03:03.955Z,15.40
2018-05-25T01:05:31.502Z,15.36
2018-05-25T01:07:59.425Z,15.32
2018-05-25T01:10:26.978Z,15.31
2018-05-25T01:12:54.525Z,15.24
2018-05-25T01:15:22.095Z,15.20
2018-05-25T01:17:49.631Z,15.17
2018-05-25T01:20:18.023Z,15.16
2018-05-25T01:22:45.699Z,15.15
2018-05-25T01:25:13.255Z,15.16
2018-05-25T01:27:40.829Z,15.12
2018-05-25T01:30:08.544Z,15.06
2018-05-25T01:32:36.087Z,15.12
2018-05-25T01:35:03.673Z,15.21
2018-05-25T01:37:31.265Z,15.26
2018-05-25T01:39:58.804Z,15.25
2018-05-25T01:42:26.345Z,15.17
2018-05-25T01:44:53.947Z,15.10
2018-05-25T01:47:21.478Z,15.08
2018-05-25T01:49:49.009Z,15.02
2018-05-25T01:52:16.796Z,14.96
2018-05-25T01:54:44.343Z,14.95
2018-05-25T01:57:11.887Z,14.92
2018-05-25T01:59:39.455Z,14.84
2018-05-25T02:02:06.996Z,14.87
2018-05-25T02:04:34.539Z,14.87
2018-05-25T02:07:02.260Z,14.86
2018-05-25T02:09:29.813Z,14.86
2018-05-25T02:11:57.353Z,14.80
2018-05-25T02:14:25.082Z,14.80
2018-05-25T02:16:52.620Z,14.80
2018-05-25T02:19:20.171Z,14.76
2018-05-25T02:21:47.753Z,14.66
2018-05-25T02:24:15.291Z,14.61
2018-05-25T02:26:42.866Z,14.64
2018-05-25T02:29:10.433Z,14.62
2018-05-25T02:31:37.965Z,14.60
2018-05-25T02:34:05.614Z,14.64
2018-05-25T02:36:33.528Z,14.61
2018-05-25T02:39:01.060Z,14.50
2018-05-25T02:41:28.607Z,14.44
2018-05-25T02:43:56.212Z,14.55
2018-05-25T02:46:23.762Z,14.51
2018-05-25T02:48:51.300Z,14.48
2018-05-25T02:51:18.867Z,14.49
2018-05-25T02:53:46.412Z,14.47
2018-05-25T02:56:13.953Z,14.42
2018-05-25T02:58:41.527Z,14.46
2018-05-25T03:01:09.065Z,14.45
2018-05-25T03:03:36.606Z,14.51
2018-05-25T03:06:04.368Z,14.56
2018-05-25T03:08:31.903Z,14.69
2018-05-25T03:10:59.436Z,14.79
2018-05-25T03:13:27.005Z,15.07
2018-05-25T03:15:54.540Z,15.35
2018-05-25T03:18:22.104Z,15.66
2018-05-25T03:20:49.990Z,15.98
2018-05-25T03:23:17.538Z,16.26
2018-05-25T03:25:45.081Z,16.73
2018-05-25T03:28:12.759Z,17.08
2018-05-25T03:30:40.302Z,17.56
2018-05-25T03:33:07.868Z,17.93
2018-05-25T03:35:35.433Z,18.38
2018-05-25T03:38:02.962Z,18.56
2018-05-25T03:40:30.507Z,19.24
2018-05-25T03:42:58.225Z,19.72
2018-05-25T03:45:25.764Z,20.05
2018-05-25T03:47:53.315Z,20.92
2018-05-25T03:50:20.890Z,21.44
2018-05-25T03:52:48.429Z,22.17
2018-05-25T03:55:15.963Z,22.71
2018-05-25T03:57:43.689Z,23.31
2018-05-25T04:00:22.860Z,24.01
2018-05-25T04:02:50.538Z,24.76
2018-05-25T04:05:18.076Z,25.40
2018-05-25T04:07:45.620Z,25.84
2018-05-25T04:10:13.333Z,25.96
2018-05-25T04:12:41.770Z,26.79
2018-05-25T04:15:09.311Z,27.54
2018-05-25T04:17:37.042Z,28.05
2018-05-25T04:20:04.592Z,28.54
2018-05-25T04:22:32.145Z,28.90
2018-05-25T04:25:00.043Z,29.18
2018-05-25T04:27:27.585Z,29.53
2018-05-25T04:29:55.119Z,30.14
2018-05-25T04:32:22.693Z,30.31
2018-05-25T04:34:50.239Z,30.99
2018-05-25T04:37:17.798Z,30.96
2018-05-25T04:39:45.689Z,31.82
2018-05-25T04:42:13.237Z,32.39
2018-05-25T04:44:40.774Z,32.76
2018-05-25T04:47:08.454Z,33.33
2018-05-25T04:49:36.011Z,33.73
2018-05-25T04:52:03.565Z,34.14
2018-05-25T04:54:31.293Z,34.38
2018-05-25T04:56:58.864Z,34.40
2018-05-25T04:59:26.416Z,34.79
2018-05-25T05:01:54.134Z,34.42
2018-05-25T05:04:21.683Z,35.09
2018-05-25T05:06:49.236Z,35.61
2018-05-25T05:09:17.160Z,35.59
2018-05-25T05:11:44.712Z,36.15
2018-05-25T05:14:12.312Z,36.14
2018-05-25T05:16:39.889Z,35.46
2018-05-25T05:19:07.449Z,35.60
2018-05-25T05:21:34.993Z,34.57
2018-05-25T05:24:02.577Z,34.05
2018-05-25T05:26:30.273Z,33.84
2018-05-25T05:28:57.827Z,33.28
2018-05-25T05:31:25.399Z,32.62
2018-05-25T05:33:52.944Z,32.02
2018-05-25T05:36:20.499Z,31.81
2018-05-25T05:38:48.407Z,30.86
2018-05-25T05:41:15.957Z,30.51
2018-05-25T05:43:43.497Z,30.40
2018-05-25T05:46:11.399Z,30.07
2018-05-25T05:48:38.951Z,29.69
2018-05-25T05:51:06.503Z,29.59
2018-05-25T05:53:34.277Z,29.46
2018-05-25T05:56:01.816Z,29.15
2018-05-25T05:58:29.364Z,28.99
2018-05-25T06:00:56.966Z,29.35
2018-05-25T06:03:24.513Z,29.33
2018-05-25T06:05:52.070Z,29.27
2018-05-25T06:08:19.667Z,29.21
2018-05-25T06:10:47.238Z,29.20
2018-05-25T06:13:14.804Z,29.11
2018-05-25T06:15:42.560Z,29.07
2018-05-25T06:18:10.132Z,28.76
2018-05-25T06:20:37.671Z,29.04
2018-05-25T06:23:05.266Z,28.92
2018-05-25T06:25:32.814Z,28.73
2018-05-25T06:28:00.346Z,28.68
2018-05-25T06:30:28.256Z,28.61
2018-05-25T06:32:55.816Z,28.55
2018-05-25T06:35:23.380Z,28.23
2018-05-25T06:37:50.972Z,28.39
2018-05-25T06:40:18.534Z,28.70
2018-05-25T06:42:46.080Z,29.05
2018-05-25T06:45:13.723Z,29.25
2018-05-25T06:47:41.411Z,28.92
2018-05-25T06:50:08.979Z,29.22
2018-05-25T06:52:36.709Z,29.17
2018-05-25T06:55:04.264Z,28.16
2018-05-25T06:57:31.840Z,28.39
2018-05-25T06:59:59.744Z,28.01
2018-05-25T07:02:27.306Z,28.01
2018-05-25T07:04:54.852Z,28.27
2018-05-25T07:07:22.439Z,28.33
2018-05-25T07:09:50.002Z,28.42
2018-05-25T07:12:17.546Z,28.14
2018-05-25T07:14:45.123Z,28.16
2018-05-25T07:17:12.668Z,28.13
2018-05-25T07:19:40.217Z,28.07
2018-05-25T07:22:07.809Z,28.15
2018-05-25T07:24:35.379Z,28.05
2018-05-25T07:27:02.928Z,28.03
2018-05-25T07:29:30.683Z,28.33
2018-05-25T07:31:58.245Z,28.49
2018-05-25T07:34:25.797Z,28.69
2018-05-25T07:36:53.383Z,28.09
2018-05-25T07:39:20.961Z,27.66
2018-05-25T07:41:48.513Z,27.39
2018-05-25T07:44:16.135Z,27.30
2018-05-25T07:46:43.679Z,27.16
2018-05-25T07:49:11.229Z,27.21
2018-05-25T07:51:38.828Z,27.16
2018-05-25T07:54:06.368Z,27.23
2018-05-25T07:56:33.913Z,27.01
2018-05-25T07:59:01.635Z,27.03
2018-05-25T08:01:29.171Z,26.75
2018-05-25T08:03:56.711Z,26.33
2018-05-25T08:06:24.431Z,25.83
2018-05-25T08:08:51.965Z,25.72
2018-05-25T08:11:19.587Z,26.11
2018-05-25T08:13:47.264Z,26.44
2018-05-25T08:16:14.812Z,26.55
2018-05-25T08:18:42.348Z,27.04
2018-05-25T08:21:10.263Z,27.18
2018-05-25T08:23:37.834Z,27.46
2018-05-25T08:26:05.395Z,27.60
2018-05-25T08:28:33.003Z,27.38
2018-05-25T08:31:00.568Z,26.98
2018-05-25T08:33:28.116Z,26.72
2018-05-25T08:35:55.693Z,26.63
2018-05-25T08:38:23.232Z,26.46
2018-05-25T08:40:50.809Z,26.76
2018-05-25T08:43:18.557Z,26.77
2018-05-25T08:45:46.095Z,26.58
2018-05-25T08:48:13.645Z,26.41
2018-05-25T08:50:41.230Z,25.75
2018-05-25T08:53:08.772Z,24.85
2018-05-25T08:55:36.318Z,24.73
2018-05-25T08:58:03.920Z,24.66
2018-05-25T09:00:31.521Z,24.81
2018-05-25T09:09:41.355Z,24.64
2018-05-25T09:12:08.815Z,24.88
2018-05-25T09:14:36.370Z,24.84
2018-05-25T09:17:04.048Z,24.94
2018-05-25T09:19:31.596Z,25.32
2018-05-25T09:21:59.186Z,25.25
2018-05-25T09:24:26.765Z,25.38
2018-05-25T09:26:54.312Z,25.45
2018-05-25T09:29:21.877Z,25.55
2018-05-25T09:31:49.489Z,25.68
2018-05-25T09:34:17.042Z,25.29
2018-05-25T09:36:44.572Z,25.21
2018-05-25T09:39:12.167Z,25.29
2018-05-25T09:41:39.725Z,25.29
2018-05-25T09:44:07.289Z,25.00
2018-05-25T09:46:34.867Z,24.70
2018-05-25T09:49:02.408Z,24.89
2018-05-25T09:51:29.960Z,24.78
2018-05-25T09:53:57.691Z,24.55
2018-05-25T09:56:25.268Z,24.23
2018-05-25T09:58:52.805Z,23.96
2018-05-25T10:01:20.391Z,24.00
2018-05-25T10:03:47.922Z,24.42
2018-05-25T10:06:15.465Z,24.91
2018-05-25T10:08:43.365Z,25.03
2018-05-25T10:11:10.903Z,25.30
2018-05-25T10:13:38.457Z,25.57
2018-05-25T10:16:06.055Z,25.93
2018-05-25T10:18:33.724Z,26.05
2018-05-25T10:21:01.269Z,26.18
2018-05-25T10:23:28.846Z,26.38
2018-05-25T10:25:56.396Z,26.26
2018-05-25T10:28:23.953Z,26.34
2018-05-25T10:30:51.513Z,26.31
2018-05-25T10:33:19.067Z,26.54
2018-05-25T10:35:46.609Z,26.49
2018-05-25T10:38:14.199Z,26.01
2018-05-25T10:40:41.773Z,25.86
2018-05-25T10:43:09.332Z,25.74
2018-05-25T10:45:36.917Z,25.47
2018-05-25T10:48:05.168Z,25.24
2018-05-25T10:50:32.716Z,25.05
2018-05-25T10:53:00.300Z,24.82
2018-05-25T10:55:27.842Z,25.00
2018-05-25T10:57:55.392Z,25.26
2018-05-25T11:00:22.955Z,25.21
2018-05-25T11:02:50.540Z,24.99
2018-05-25T11:05:18.101Z,25.00
2018-05-25T11:07:45.776Z,24.90
2018-05-25T11:10:13.310Z,25.24
2018-05-25T11:12:40.864Z,25.39
2018-05-25T11:15:08.622Z,25.28
2018-05-25T11:17:36.175Z,25.19
2018-05-25T11:20:03.773Z,25.29
2018-05-25T11:22:31.544Z,25.45
2018-05-25T11:24:59.123Z,25.76
2018-05-25T11:27:26.664Z,26.11
2018-05-25T11:29:54.244Z,26.45
2018-05-25T11:32:21.813Z,26.78
2018-05-25T11:34:49.378Z,27.06
2018-05-25T11:37:16.943Z,27.14
2018-05-25T11:39:44.508Z,26.86
2018-05-25T11:42:12.057Z,26.39
2018-05-25T11:44:39.986Z,26.27
2018-05-25T11:47:07.594Z,26.44
2018-05-25T11:49:35.154Z,26.26
2018-05-25T11:52:02.733Z,25.84
2018-05-25T11:54:30.276Z,25.71
2018-05-25T11:56:57.819Z,25.54
2018-05-25T11:59:25.612Z,25.54
2018-05-25T12:01:53.176Z,25.25
2018-05-25T12:04:20.690Z,24.98
2018-05-25T12:06:48.276Z,24.89
2018-05-25T12:09:15.825Z,24.64
2018-05-25T12:11:43.372Z,24.30
2018-05-25T12:14:11.064Z,23.30
2018-05-25T12:16:38.608Z,22.41
2018-05-25T12:19:06.166Z,21.82
2018-05-25T12:21:33.902Z,21.60
2018-05-25T12:24:01.459Z,21.47
2018-05-25T12:26:29.025Z,21.43
2018-05-25T12:28:56.602Z,21.64
2018-05-25T12:31:24.139Z,21.89
2018-05-25T12:33:51.673Z,21.96
2018-05-25T12:36:19.274Z,22.27
2018-05-25T12:38:46.826Z,22.75
2018-05-25T12:41:14.382Z,23.35
2018-05-25T12:43:41.950Z,23.77
2018-05-25T12:46:09.495Z,23.94
2018-05-25T12:48:37.062Z,24.43
2018-05-25T12:51:04.658Z,24.99
2018-05-25T12:53:32.218Z,25.56
2018-05-25T12:55:59.770Z,25.42
2018-05-25T12:58:27.500Z,24.88
2018-05-25T13:00:55.056Z,24.91
2018-05-25T13:03:22.603Z,25.04
2018-05-25T13:05:50.317Z,25.13
2018-05-25T13:08:17.866Z,25.14
2018-05-25T13:10:45.403Z,24.98
2018-05-25T13:13:12.960Z,24.92
2018-05-25T13:15:40.519Z,25.04
2018-05-25T13:18:08.059Z,24.86
2018-05-25T13:20:35.648Z,24.35
2018-05-25T13:23:03.192Z,24.21
2018-05-25T13:25:30.763Z,24.41
2018-05-25T13:27:58.354Z,24.49
2018-05-25T13:30:25.914Z,24.58
2018-05-25T13:32:53.459Z,24.86
2018-05-25T13:35:21.175Z,24.84
2018-05-25T13:37:48.728Z,24.91
2018-05-25T13:40:16.266Z,25.03
2018-05-25T13:42:43.860Z,25.01
2018-05-25T13:45:11.389Z,25.03
2018-05-25T13:47:38.928Z,24.87
2018-05-25T13:50:06.670Z,24.97
2018-05-25T13:52:34.206Z,24.96
2018-05-25T13:55:01.763Z,24.74
2018-05-25T13:57:29.526Z,24.52
2018-05-25T13:59:57.097Z,24.39
2018-05-25T14:02:24.645Z,24.03
2018-05-25T14:04:52.200Z,23.99
2018-05-25T14:07:19.744Z,23.79
2018-05-25T14:09:47.315Z,23.74
2018-05-25T14:12:14.860Z,23.62
2018-05-25T14:14:42.426Z,23.37
2018-05-25T14:17:10.101Z,23.22
2018-05-25T14:19:37.639Z,22.96
2018-05-25T14:22:05.180Z,22.60
2018-05-25T14:24:33.233Z,22.31
2018-05-25T14:27:00.802Z,22.31
2018-05-25T14:29:28.362Z,22.22
2018-05-25T14:31:56.004Z,21.67
2018-05-25T14:34:23.548Z,21.69
2018-05-25T14:36:51.082Z,21.65
2018-05-25T14:39:18.874Z,21.70
2018-05-25T14:41:46.417Z,21.90
2018-05-25T14:44:13.957Z,21.86
2018-05-25T14:46:41.581Z,21.89
2018-05-25T14:49:09.141Z,22.14
2018-05-25T14:51:36.710Z,22.13
2018-05-25T14:54:04.496Z,22.11
2018-05-25T14:56:32.034Z,22.13
2018-05-25T14:58:59.615Z,22.12
2018-05-25T15:01:27.189Z,22.23
2018-05-25T15:03:54.721Z,22.13
2018-05-25T15:06:22.268Z,22.11
2018-05-25T15:08:49.990Z,22.12
2018-05-25T15:11:17.551Z,22.15
2018-05-25T15:13:45.105Z,21.97
2018-05-25T15:16:12.794Z,21.88
2018-05-25T15:18:40.348Z,21.83
2018-05-25T15:21:07.908Z,22.05
2018-05-25T15:23:35.635Z,22.16
2018-05-25T15:26:03.187Z,22.24
2018-05-25T15:28:30.735Z,22.29
2018-05-25T15:30:58.556Z,22.31
2018-05-25T15:33:25.981Z,22.56
2018-05-25T15:35:53.521Z,22.70
2018-05-25T15:38:21.280Z,22.62
2018-05-25T15:40:48.833Z,22.66
2018-05-25T15:43:16.383Z,22.76
2018-05-25T15:45:43.976Z,22.78
2018-05-25T15:48:11.547Z,22.78
2018-05-25T15:50:39.140Z,22.86
2018-05-25T15:53:06.732Z,22.90
2018-05-25T15:55:34.281Z,22.84
2018-05-25T15:58:01.849Z,22.83
2018-05-25T16:00:29.557Z,22.85
2018-05-25T16:02:57.115Z,22.95
2018-05-25T16:05:24.664Z,22.91
2018-05-25T16:07:52.373Z,22.89
2018-05-25T16:10:19.916Z,23.07
2018-05-25T16:12:47.477Z,23.06
2018-05-25T16:15:15.391Z,23.00
2018-05-25T16:17:42.950Z,22.94
2018-05-25T16:20:10.529Z,22.95
2018-05-25T16:22:38.106Z,22.90
2018-05-25T16:25:05.690Z,22.94
2018-05-25T16:27:33.239Z,22.81
2018-05-25T16:30:00.828Z,22.99
2018-05-25T16:32:28.368Z,22.95
2018-05-25T16:34:55.904Z,23.02
2018-05-25T16:37:23.476Z,22.97
2018-05-25T16:39:51.031Z,22.94
2018-05-25T16:42:18.581Z,22.80
2018-05-25T16:44:46.303Z,22.81
2018-05-25T16:47:13.856Z,22.80
2018-05-25T16:49:41.405Z,22.86
2018-05-25T16:52:08.981Z,22.92
2018-05-25T16:54:36.511Z,22.95
2018-05-25T16:57:04.058Z,22.97
2018-05-25T16:59:31.797Z,22.97
2018-05-25T17:01:59.344Z,22.94
2018-05-25T17:04:26.882Z,22.99
2018-05-25T17:06:54.483Z,22.97
2018-05-25T17:09:22.036Z,22.96
2018-05-25T17:11:49.594Z,22.93
2018-05-25T17:14:17.504Z,22.94
2018-05-25T17:16:45.075Z,22.93
2018-05-25T17:19:12.616Z,22.92
2018-05-25T17:21:40.191Z,22.83
2018-05-25T17:24:07.740Z,22.72
2018-05-25T17:26:35.333Z,22.65
2018-05-25T17:29:03.252Z,22.38
2018-05-25T17:31:30.807Z,22.40
2018-05-25T17:33:58.351Z,22.34
2018-05-25T17:36:26.870Z,22.29
2018-05-25T17:38:54.432Z,22.18
2018-05-25T17:41:22.006Z,22.04
2018-05-25T17:43:49.616Z,21.91
2018-05-25T17:46:17.165Z,21.77
2018-05-25T17:48:44.719Z,21.59
2018-05-25T17:51:12.405Z,21.40
2018-05-25T17:53:39.960Z,21.11
2018-05-25T17:56:07.515Z,20.88
2018-05-25T17:58:35.257Z,20.72
2018-05-25T18:01:02.834Z,20.43
2018-05-25T18:03:30.385Z,20.28
2018-05-25T18:05:57.939Z,19.72
2018-05-25T18:08:25.477Z,19.50
2018-05-25T18:10:53.859Z,19.34
2018-05-25T18:13:21.467Z,19.32
2018-05-25T18:15:49.021Z,19.26
2018-05-25T18:18:16.601Z,19.09
2018-05-25T18:20:44.156Z,19.01
2018-05-25T18:23:11.727Z,18.89
2018-05-25T18:25:39.637Z,18.79
2018-05-25T18:28:07.176Z,18.71
2018-05-25T18:30:34.719Z,18.75
2018-05-25T18:33:02.653Z,18.87
2018-05-25T18:35:30.212Z,18.99
2018-05-25T18:37:57.754Z,18.92
2018-05-25T18:40:25.345Z,19.01
2018-05-25T18:42:52.899Z,19.09
2018-05-25T18:45:20.450Z,19.13
2018-05-25T18:47:48.011Z,19.02
2018-05-25T18:50:15.555Z,18.82
2018-05-25T18:52:43.100Z,18.82
2018-05-25T18:55:10.989Z,18.83
2018-05-25T18:57:38.561Z,18.85
2018-05-25T19:00:06.122Z,18.64
2018-05-25T19:02:33.862Z,18.44
2018-05-25T19:05:01.412Z,18.16
2018-05-25T19:07:28.985Z,17.92
2018-05-25T19:09:56.595Z,17.89
2018-05-25T19:12:24.163Z,17.88
2018-05-25T19:14:51.725Z,17.90
2018-05-25T19:17:19.460Z,18.37
2018-05-25T19:19:47.065Z,18.30
2018-05-25T19:22:14.666Z,18.24
2018-05-25T19:24:42.278Z,18.35
2018-05-25T19:27:09.843Z,18.16
2018-05-25T19:29:37.425Z,18.05
2018-05-25T19:32:05.160Z,17.76
2018-05-25T19:34:32.696Z,17.66
2018-05-25T19:37:00.259Z,17.76
2018-05-25T19:39:28.002Z,17.80
2018-05-25T19:41:55.580Z,17.89
2018-05-25T19:44:23.139Z,18.02
2018-05-25T19:46:50.723Z,17.99
2018-05-25T19:49:18.297Z,18.06
2018-05-25T19:51:45.831Z,18.17
2018-05-25T19:54:13.485Z,18.37
2018-05-25T19:56:41.613Z,18.50
2018-05-25T19:59:09.163Z,18.60
2018-05-25T20:01:36.842Z,18.72
2018-05-25T20:04:04.463Z,18.74
2018-05-25T20:06:32.001Z,18.78
2018-05-25T20:08:59.787Z,18.65
2018-05-25T20:11:27.332Z,18.59
2018-05-25T20:13:54.877Z,18.51
2018-05-25T20:16:22.550Z,18.48
2018-05-25T20:18:50.103Z,18.38
2018-05-25T20:21:17.663Z,18.28
2018-05-25T20:23:45.396Z,18.18
2018-05-25T20:26:12.961Z,18.15
2018-05-25T20:28:40.514Z,18.11
2018-05-25T20:31:08.250Z,18.05
2018-05-25T20:33:35.793Z,18.00
2018-05-25T20:36:03.350Z,17.95
2018-05-25T20:38:30.935Z,17.88
2018-05-25T20:40:58.479Z,17.83
2018-05-25T20:43:26.018Z,17.78
2018-05-25T20:45:54.090Z,17.67
2018-05-25T20:48:21.709Z,17.66
2018-05-25T20:50:49.261Z,17.65
2018-05-25T20:53:17.188Z,17.48
2018-05-25T20:55:44.727Z,17.32
2018-05-25T20:58:12.320Z,17.29
2018-05-25T21:00:40.016Z,17.19
2018-05-25T21:03:07.572Z,17.16
2018-05-25T21:05:35.114Z,17.14
2018-05-25T21:08:02.698Z,17.12
2018-05-25T21:10:30.257Z,17.07
2018-05-25T21:12:57.826Z,17.09
2018-05-25T21:15:25.508Z,17.14
2018-05-25T21:17:53.108Z,17.07
2018-05-25T21:20:20.627Z,16.94
2018-05-25T21:22:48.541Z,16.82
2018-05-25T21:25:16.109Z,16.78
2018-05-25T21:27:43.660Z,16.73
2018-05-25T21:30:11.392Z,16.64
2018-05-25T21:32:38.952Z,16.58
2018-05-25T21:35:06.510Z,16.55
2018-05-25T21:37:34.091Z,16.53
2018-05-25T21:40:01.639Z,16.54
2018-05-25T21:42:29.188Z,16.52
2018-05-25T21:44:56.780Z,16.51
2018-05-25T21:47:24.329Z,16.48
2018-05-25T21:49:51.864Z,16.49
2018-05-25T21:52:19.456Z,16.47
2018-05-25T21:54:47.082Z,16.43
2018-05-25T21:57:14.651Z,16.37
2018-05-25T21:59:42.930Z,16.30
2018-05-25T22:02:10.499Z,16.26
2018-05-25T22:04:38.058Z,16.27
2018-05-25T22:07:05.645Z,16.21
2018-05-25T22:09:33.213Z,16.16
2018-05-25T22:12:00.757Z,16.14
2018-05-25T22:14:28.664Z,16.09
2018-05-25T22:16:56.331Z,16.04
2018-05-25T22:19:23.893Z,15.98
2018-05-25T22:21:51.477Z,15.95
2018-05-25T22:24:19.033Z,15.91
2018-05-25T22:26:46.580Z,15.85
2018-05-25T22:29:14.325Z,15.83
2018-05-25T22:31:41.876Z,15.78
2018-05-25T22:34:09.441Z,15.74
2018-05-25T22:36:37.138Z,15.70
2018-05-25T22:39:04.732Z,15.73
2018-05-25T22:41:32.276Z,15.67
2018-05-25T22:44:11.577Z,15.61
2018-05-25T22:46:50.907Z,15.56
2018-05-25T22:49:30.173Z,15.55
2018-05-25T22:52:09.533Z,15.54
2018-05-25T22:54:42.969Z,15.52
2018-05-25T22:57:10.506Z,15.50
2018-05-25T22:59:38.068Z,15.48
2018-05-25T23:02:05.749Z,15.45
2018-05-25T23:04:33.294Z,15.45
2018-05-25T23:07:00.859Z,15.38
2018-05-25T23:09:28.595Z,15.34
2018-05-25T23:11:56.150Z,15.28
2018-05-25T23:14:23.705Z,15.22
2018-05-25T23:16:51.281Z,15.21
2018-05-25T23:19:18.825Z,15.19
2018-05-25T23:21:46.367Z,15.17
2018-05-25T23:24:14.067Z,15.09
2018-05-25T23:26:41.619Z,15.14
2018-05-25T23:29:09.159Z,15.13
2018-05-25T23:31:36.741Z,15.20
2018-05-25T23:34:04.289Z,15.19
2018-05-25T23:36:31.837Z,15.12
2018-05-25T23:38:59.500Z,15.11
2018-05-25T23:41:27.040Z,15.09
2018-05-25T23:43:54.624Z,15.05
2018-05-25T23:46:22.198Z,15.05
2018-05-25T23:48:49.743Z,14.98
2018-05-25T23:51:17.282Z,14.98
2018-05-25T23:53:44.882Z,14.99
2018-05-25T23:56:12.433Z,15.03
2018-05-25T23:58:39.961Z,15.06
